Terminal Aerodrome Forecast
Issued by NWS

Current Version | Previous Version | Text Only | Print | Product List | Glossary On
Versions: 1 2 3 4 5 6 7 8 9 10 11 12 13 14 15 16
433
FTUS41 KCAR 261120
TAFPQI
TAF
KPQI 261120Z 2612/2712 35012KT P6SM OVC015
     FM261500 33011KT P6SM SCT010
     FM270000 07005KT P6SM SCT120
     FM270400 11006KT P6SM BKN015
     FM270600 13007KT P6SM BKN005
     FM271100 13006KT 3SM -SHRA OVC008=

USA.gov is the U.S. government's official web portal to all federal, state and local government web resources and services.